Saint Paul, MN (55129)

2:17 AM CST on November 26, 2014 (GMT -0600)
Lake Rd & Pioneer Dr | Change Station
CLOSE
Current Station
Personal Weather Station
Location: Woodbury, MN
Elevation: 983 ft
Nearby Weather Stations

Elev 983 ft 44.90 °N, 92.93 °W | Updated 17 seconds ago

Overcast
Overcast
23.5 °F
Feels Like 16 °F
N
5.8
Wind Variable Wind from ESE
Gusts 5.8 mph

Today
High -- | Low -- °F
--% Chance of Precip.
Yesterday
High -- | Low -- °F
Precip. -- in
7:23 AM 4:34 PM
Waxing Crescent, 17% visible
Pressure 30.04 in
Visibility 10.0 miles
Clouds Overcast 6000 ft
Windchill 16 °F
Dew Point -8 °F
Humidity 24%
Rainfall 0.00 in
Snow Depth Not available.
UV 0 out of 12
Pollen .10 out of 12
Air Quality Not available.
Flu Activity Not available.
METAR KSGS 260750Z AUTO 13005KT 10SM OVC060 M04/M09 A3004 RMK AO2 T10361087

More Conditions Fewer Conditions

Pressure 30.04 in
Visibility 10.0 miles
Clouds Overcast 6000 ft
Windchill 16 °F
Dew Point -8 °F
Humidity 24%
Rainfall 0.00 in
Snow Depth Not available.
UV 0 out of 12
Pollen .10 out of 12
Air Quality Not available.
Flu Activity Not available.
METAR KSGS 260750Z AUTO 13005KT 10SM OVC060 M04/M09 A3004 RMK AO2 T10361087

More Conditions Fewer Conditions

10-Day Weather Forecast

Almanac

Astronomy

Nov. 26, 2014 Rise Set
Actual Time
Civil Twilight
Nautical Twilight
Astronomical Twilight
Moon
Length of Visible Light
Length of Day
Tomorrow will be .
, % of the Moon is Illuminated

Today's Extremes

State Highs State Lows

Community

WunderPhotos

Upload Photos

1,773,694 photos uploaded!

WunderBlogs® & News

Nearby

Air Quality

  Air Quality AQ Index Pollutant
Not available.

Snow Depth

Station Depth Elevation

Earthquake Activity

City Distance Mag. Time & Date
Minimum magnitude displayed is 2.5.

Coastal Water Temperatures

Place Temperature

Nearby Weather Stations